Time;durP1;ratioP1;P1;durP2;ratioP2;P2;SDS_P1;SDS_P2;PMS_P1;PMS_P2;Temp;Humidity;BMP_temperature;BMP_pressure;BME280_temperature;BME280_humidity;BME280_pressure;Samples;Min_cycle;Max_cycle;Signal;HPM_P1;HPM_P2
2022/08/18 00:01:43;;;;;;;5.03;4.25;;;18.60;99.90;;;;;;4959823;28;20188;-77
2022/08/18 00:04:10;;;;;;;4.28;3.88;;;18.60;99.90;;;;;;4959590;28;20239;-77
2022/08/18 00:06:35;;;;;;;4.60;4.20;;;18.60;99.90;;;;;;4976386;28;20243;-77
2022/08/18 00:09:05;;;;;;;4.40;4.00;;;18.50;99.90;;;;;;4960080;28;20185;-77
2022/08/18 00:11:34;;;;;;;4.30;3.90;;;18.60;99.90;;;;;;4959726;28;20168;-77
2022/08/18 00:14:00;;;;;;;4.55;4.15;;;18.60;99.90;;;;;;4975317;28;20177;-76
2022/08/18 00:16:25;;;;;;;4.03;3.67;;;18.70;99.90;;;;;;4975941;28;20262;-77
2022/08/18 00:18:51;;;;;;;4.30;3.90;;;18.80;99.90;;;;;;4977420;28;20192;-78
2022/08/18 00:21:17;;;;;;;6.50;4.22;;;18.80;99.90;;;;;;4960289;28;20557;-77
2022/08/18 00:23:43;;;;;;;4.20;3.90;;;18.70;99.90;;;;;;4976603;28;20200;-77
2022/08/18 00:26:09;;;;;;;4.50;4.20;;;18.60;99.90;;;;;;4960536;28;20192;-77
2022/08/18 00:28:34;;;;;;;4.75;4.10;;;18.50;99.90;;;;;;4960365;28;20187;-77
2022/08/18 00:31:00;;;;;;;4.20;3.80;;;18.50;99.90;;;;;;4960305;28;20304;-77
2022/08/18 00:33:26;;;;;;;4.80;4.40;;;18.40;99.90;;;;;;4960173;28;20180;-77
2022/08/18 00:35:52;;;;;;;4.60;4.20;;;18.50;99.90;;;;;;4960172;28;20238;-78
2022/08/18 00:38:18;;;;;;;4.40;4.00;;;18.70;99.90;;;;;;4960198;28;20563;-77
2022/08/18 00:40:48;;;;;;;4.80;4.40;;;18.70;99.90;;;;;;4959953;28;20180;-78
2022/08/18 00:43:20;;;;;;;4.35;3.95;;;18.70;99.90;;;;;;4959874;28;20204;-77
2022/08/18 00:45:46;;;;;;;4.80;4.20;;;18.70;99.90;;;;;;4977118;28;20203;-77
2022/08/18 00:48:13;;;;;;;4.45;4.05;;;18.70;99.90;;;;;;4960073;28;20211;-77
2022/08/18 00:50:44;;;;;;;4.10;3.80;;;18.60;99.90;;;;;;4959652;28;20209;-77
2022/08/18 00:53:17;;;;;;;4.45;4.05;;;18.70;99.90;;;;;;4975913;28;20191;-77
2022/08/18 00:55:47;;;;;;;4.55;4.15;;;18.70;99.90;;;;;;4959868;28;20321;-78
2022/08/18 00:58:21;;;;;;;4.43;4.03;;;18.80;99.90;;;;;;4975976;28;20203;-77
2022/08/18 01:00:49;;;;;;;5.30;4.80;;;18.80;99.90;;;;;;4959398;28;20186;-77
2022/08/18 01:03:17;;;;;;;5.40;5.00;;;18.70;99.90;;;;;;4959408;28;20212;-77
2022/08/18 01:06:10;;;;;;;6.00;5.43;;;18.70;99.90;;;;;;4958774;28;20226;-77
2022/08/18 01:08:39;;;;;;;6.00;5.20;;;18.60;99.90;;;;;;4959318;28;20662;-77
2022/08/18 01:11:04;;;;;;;5.47;4.97;;;18.60;99.90;;;;;;4974699;28;20242;-77
2022/08/18 01:13:31;;;;;;;5.90;5.10;;;18.60;99.90;;;;;;4975354;28;20180;-77
2022/08/18 01:15:58;;;;;;;5.90;5.40;;;18.60;99.90;;;;;;4958628;28;20314;-77
2022/08/18 01:27:19;;;;;;;5.27;4.60;;;18.20;99.90;;;;;;4916696;29;20266;-76
2022/08/18 01:29:47;;;;;;;5.03;4.57;;;18.10;99.90;;;;;;4935934;28;20196;-77
2022/08/18 01:32:21;;;;;;;5.07;4.53;;;17.90;99.90;;;;;;4958918;28;20242;-77
2022/08/18 01:34:49;;;;;;;4.80;4.40;;;17.80;99.90;;;;;;4958468;28;20184;-77
2022/08/18 01:37:18;;;;;;;4.83;4.43;;;18.00;99.90;;;;;;4958488;28;20237;-77
2022/08/18 01:39:44;;;;;;;4.73;4.30;;;18.10;99.90;;;;;;4958071;28;20186;-77
2022/08/18 01:42:13;;;;;;;5.10;4.70;;;18.20;99.90;;;;;;4958242;28;20184;-77
2022/08/18 01:44:42;;;;;;;4.70;4.30;;;18.20;99.90;;;;;;4958440;28;20215;-77
2022/08/18 01:47:11;;;;;;;4.93;4.47;;;18.30;99.90;;;;;;4958211;28;20203;-77
2022/08/18 01:49:39;;;;;;;4.93;4.43;;;18.40;99.90;;;;;;4974475;28;20678;-77
2022/08/18 01:52:06;;;;;;;4.83;4.43;;;18.40;99.90;;;;;;4974409;28;20268;-77
2022/08/18 01:54:32;;;;;;;5.20;4.60;;;18.30;99.90;;;;;;4974396;28;20189;-77
2022/08/18 01:56:58;;;;;;;5.67;5.17;;;18.40;99.90;;;;;;4958007;28;20223;-77
2022/08/18 01:59:24;;;;;;;5.57;5.03;;;18.40;99.90;;;;;;4974043;28;20231;-77
2022/08/18 02:01:54;;;;;;;5.23;4.73;;;18.40;99.90;;;;;;4957929;28;20647;-77
2022/08/18 02:04:23;;;;;;;5.10;4.70;;;18.30;99.90;;;;;;4975052;28;20207;-78
2022/08/18 02:06:49;;;;;;;5.03;4.53;;;18.20;99.90;;;;;;4957797;28;20255;-77
2022/08/18 02:09:15;;;;;;;4.63;4.23;;;18.20;99.90;;;;;;4973941;28;20181;-77
2022/08/18 02:11:41;;;;;;;5.40;4.87;;;18.20;99.90;;;;;;4957475;28;20202;-76
2022/08/18 02:14:06;;;;;;;5.20;4.70;;;18.30;99.90;;;;;;4957415;28;20264;-77
2022/08/18 02:16:32;;;;;;;5.10;4.70;;;18.30;99.90;;;;;;4973014;28;20204;-77
2022/08/18 02:18:58;;;;;;;4.80;4.40;;;18.20;99.90;;;;;;4973739;28;20181;-77
2022/08/18 02:21:23;;;;;;;4.63;4.23;;;18.10;99.90;;;;;;4957666;28;20180;-77
2022/08/18 02:23:49;;;;;;;4.77;4.30;;;18.20;99.90;;;;;;4973417;28;20208;-77
2022/08/18 02:26:16;;;;;;;4.83;4.30;;;18.10;99.90;;;;;;4957335;28;20203;-76
2022/08/18 02:28:42;;;;;;;4.90;4.40;;;18.20;99.90;;;;;;4957665;28;20227;-77
2022/08/18 02:31:17;;;;;;;4.70;4.20;;;18.00;99.90;;;;;;4957034;28;20169;-77
2022/08/18 02:33:45;;;;;;;5.23;4.83;;;17.90;99.90;;;;;;4957296;28;20714;-78
2022/08/18 02:36:11;;;;;;;5.27;4.77;;;17.90;99.90;;;;;;4957305;28;20204;-77
2022/08/18 02:38:37;;;;;;;6.23;4.90;;;18.10;99.90;;;;;;4957341;28;20223;-77
2022/08/18 02:41:06;;;;;;;5.00;4.50;;;18.20;99.90;;;;;;4974204;28;20589;-77
2022/08/18 02:43:32;;;;;;;5.00;4.60;;;18.20;99.90;;;;;;4957391;28;20204;-77
2022/08/18 02:45:58;;;;;;;5.10;4.70;;;18.30;99.90;;;;;;4973585;28;20211;-77
2022/08/18 02:48:35;;;;;;;4.87;4.47;;;18.30;99.90;;;;;;4957977;28;20211;-78
2022/08/18 02:51:11;;;;;;;4.90;4.50;;;18.30;99.90;;;;;;4973967;28;20665;-78
2022/08/18 02:53:39;;;;;;;5.67;4.87;;;18.20;99.90;;;;;;4957950;28;20228;-78
2022/08/18 02:56:23;;;;;;;4.67;4.27;;;18.20;99.90;;;;;;4958333;28;20661;-78
2022/08/18 02:58:52;;;;;;;5.30;4.80;;;18.10;99.90;;;;;;4958289;28;20172;-78
2022/08/18 03:01:19;;;;;;;4.80;4.40;;;18.20;99.90;;;;;;4974346;28;20185;-78
2022/08/18 03:03:45;;;;;;;4.80;4.30;;;18.20;99.90;;;;;;4974106;28;20208;-77
2022/08/18 03:06:11;;;;;;;4.50;4.10;;;18.20;99.90;;;;;;4974144;28;20211;-78
2022/08/18 03:08:36;;;;;;;5.47;4.70;;;18.20;99.90;;;;;;4974237;28;20179;-77
2022/08/18 03:11:02;;;;;;;5.23;4.63;;;18.20;99.90;;;;;;4973802;28;20180;-76
2022/08/18 03:13:29;;;;;;;4.90;4.50;;;18.30;99.90;;;;;;4958323;28;20222;-78
2022/08/18 03:15:55;;;;;;;5.00;4.60;;;18.20;99.90;;;;;;4973655;28;20201;-77
2022/08/18 03:18:22;;;;;;;5.63;4.53;;;18.20;99.90;;;;;;4958267;28;20539;-78
2022/08/18 03:20:48;;;;;;;4.80;4.40;;;18.30;99.90;;;;;;4957583;28;20180;-77
2022/08/18 03:23:14;;;;;;;5.60;4.83;;;18.30;99.90;;;;;;4958027;28;20204;-77
2022/08/18 03:25:46;;;;;;;5.00;4.60;;;18.40;99.90;;;;;;4974075;28;20172;-78
2022/08/18 03:28:12;;;;;;;5.27;4.67;;;18.40;99.90;;;;;;4975324;28;20175;-78
2022/08/18 03:30:38;;;;;;;4.90;4.50;;;18.40;99.90;;;;;;4957683;28;20243;-78
2022/08/18 03:33:04;;;;;;;5.77;5.17;;;18.30;99.90;;;;;;4958174;28;20735;-78
2022/08/18 03:35:29;;;;;;;5.57;5.10;;;18.30;99.90;;;;;;4973718;28;20184;-78
2022/08/18 03:37:59;;;;;;;5.23;4.73;;;18.30;99.90;;;;;;5013983;23;20220;-80
2022/08/18 03:40:25;;;;;;;4.60;4.20;;;18.20;99.90;;;;;;4975556;28;20172;-80
2022/08/18 03:42:50;;;;;;;5.10;4.60;;;18.10;99.90;;;;;;4992002;28;20200;-80
2022/08/18 03:45:16;;;;;;;6.53;5.27;;;18.20;99.90;;;;;;4992125;28;20646;-80
2022/08/18 03:47:44;;;;;;;5.80;5.20;;;18.10;99.90;;;;;;4975736;28;20195;-80
2022/08/18 03:50:11;;;;;;;4.97;4.57;;;18.00;99.90;;;;;;4959872;28;20172;-80
2022/08/18 03:52:37;;;;;;;6.00;4.87;;;18.00;99.90;;;;;;4991999;28;20650;-80
2022/08/18 03:55:04;;;;;;;4.93;4.40;;;17.90;99.90;;;;;;4959791;28;20242;-80
2022/08/18 03:57:31;;;;;;;5.50;5.10;;;17.80;99.90;;;;;;5008170;28;20192;-80
2022/08/18 03:59:57;;;;;;;5.57;5.07;;;17.80;99.90;;;;;;5008055;28;20172;-80
2022/08/18 04:02:23;;;;;;;5.50;5.00;;;17.70;99.90;;;;;;5008439;28;20176;-80
2022/08/18 04:04:48;;;;;;;5.20;4.80;;;17.70;99.90;;;;;;4959296;28;20215;-80
2022/08/18 04:07:16;;;;;;;4.83;4.43;;;17.80;99.90;;;;;;4975414;28;20271;-81
2022/08/18 04:09:42;;;;;;;5.30;4.80;;;17.80;99.90;;;;;;4991836;28;20255;-81
2022/08/18 04:12:13;;;;;;;5.30;4.90;;;17.80;99.90;;;;;;5008246;28;20642;-81
2022/08/18 04:14:40;;;;;;;5.33;4.83;;;17.80;99.90;;;;;;4991830;28;20203;-81
2022/08/18 04:17:06;;;;;;;5.40;4.90;;;17.70;99.90;;;;;;5007953;28;20207;-80
2022/08/18 04:19:33;;;;;;;5.60;5.00;;;17.70;99.90;;;;;;4991616;28;20180;-80
2022/08/18 04:22:01;;;;;;;5.33;4.93;;;17.60;99.90;;;;;;4959281;28;20219;-80
2022/08/18 04:24:29;;;;;;;5.67;5.17;;;17.70;99.90;;;;;;5007741;28;20195;-80
2022/08/18 04:26:55;;;;;;;6.20;5.00;;;17.80;99.90;;;;;;4992900;28;20184;-80
2022/08/18 04:29:21;;;;;;;5.77;5.27;;;17.90;99.90;;;;;;5007959;28;20182;-80
2022/08/18 04:31:49;;;;;;;5.40;5.00;;;18.00;99.90;;;;;;4991411;28;20172;-80
2022/08/18 04:34:15;;;;;;;6.63;5.23;;;18.00;99.90;;;;;;5007971;28;20180;-80
2022/08/18 04:36:41;;;;;;;5.53;5.03;;;18.00;99.90;;;;;;4959401;28;20215;-80
2022/08/18 04:39:09;;;;;;;5.33;4.73;;;18.00;99.90;;;;;;4959615;28;20180;-80
2022/08/18 04:41:36;;;;;;;6.33;5.17;;;17.80;99.90;;;;;;5011278;28;20652;-80
2022/08/18 04:44:06;;;;;;;5.23;4.83;;;17.80;99.90;;;;;;5011534;28;20200;-80
2022/08/18 04:46:42;;;;;;;5.33;4.83;;;17.70;99.90;;;;;;4962939;28;20192;-80
2022/08/18 04:49:10;;;;;;;5.37;4.87;;;17.80;99.90;;;;;;4995132;28;20270;-80
2022/08/18 04:51:41;;;;;;;5.10;4.60;;;17.70;99.90;;;;;;5011122;28;20175;-80
2022/08/18 04:54:07;;;;;;;6.47;5.40;;;17.70;99.90;;;;;;5011166;28;20646;-81
2022/08/18 04:56:37;;;;;;;6.00;5.40;;;17.80;99.90;;;;;;4978437;28;20199;-81
2022/08/18 04:59:13;;;;;;;5.30;4.80;;;17.80;99.90;;;;;;5010751;28;20584;-81
2022/08/18 05:01:41;;;;;;;5.20;4.70;;;17.90;99.90;;;;;;4961901;28;20183;-81
2022/08/18 05:04:07;;;;;;;5.83;5.33;;;17.90;99.90;;;;;;5010889;28;20204;-81
2022/08/18 05:06:34;;;;;;;6.17;5.57;;;18.00;99.90;;;;;;4994652;28;20236;-81
2022/08/18 05:09:05;;;;;;;5.73;5.23;;;18.00;99.90;;;;;;5010582;28;20211;-81
2022/08/18 05:11:34;;;;;;;8.37;5.53;;;18.00;99.90;;;;;;5010548;28;20172;-81
2022/08/18 05:14:05;;;;;;;5.83;5.33;;;18.00;99.90;;;;;;4994436;28;20184;-82
2022/08/18 05:16:34;;;;;;;7.17;5.17;;;17.90;99.90;;;;;;4994413;28;20257;-81
2022/08/18 05:19:02;;;;;;;6.23;5.63;;;18.00;99.90;;;;;;5010546;28;20171;-81
2022/08/18 05:21:28;;;;;;;5.80;5.30;;;18.00;99.90;;;;;;4962420;28;20267;-81
2022/08/18 05:23:54;;;;;;;6.97;5.23;;;18.00;99.90;;;;;;4977912;28;20686;-81
2022/08/18 05:26:19;;;;;;;6.30;5.77;;;18.00;99.90;;;;;;4963077;28;20211;-81
2022/08/18 05:28:46;;;;;;;5.80;5.30;;;18.00;99.90;;;;;;4977714;28;20270;-82
2022/08/18 05:31:15;;;;;;;6.03;5.40;;;18.10;99.90;;;;;;4961768;28;20250;-82
2022/08/18 05:33:41;;;;;;;5.83;5.23;;;18.30;99.90;;;;;;5010833;28;20182;-81
2022/08/18 05:36:38;;;;;;;6.37;5.27;;;18.30;99.90;;;;;;4993833;28;20204;-81
2022/08/18 05:39:22;;;;;;;5.63;5.10;;;18.40;99.90;;;;;;4977284;28;20334;-81
2022/08/18 05:42:08;;;;;;;5.90;5.30;;;18.30;99.90;;;;;;4977198;28;20263;-81
2022/08/18 05:44:40;;;;;;;5.80;5.30;;;18.20;99.90;;;;;;4977111;28;20215;-81
2022/08/18 05:47:20;;;;;;;5.97;5.47;;;18.20;99.90;;;;;;4993562;28;20334;-82
2022/08/18 05:49:48;;;;;;;6.33;5.20;;;18.20;99.90;;;;;;4976945;28;20624;-81
2022/08/18 05:52:32;;;;;;;6.47;5.87;;;18.30;99.90;;;;;;4992614;28;20203;-82
2022/08/18 05:58:07;;;;;;;5.87;5.37;;;18.30;99.90;;;;;;4995196;28;20226;-81
2022/08/18 06:00:35;;;;;;;6.03;5.43;;;18.40;99.90;;;;;;5010264;28;20226;-82
2022/08/18 06:03:19;;;;;;;6.00;5.50;;;18.50;99.90;;;;;;4961400;28;20246;-81
2022/08/18 06:05:52;;;;;;;6.10;5.50;;;18.50;99.90;;;;;;4962047;28;20230;-81
2022/08/18 06:08:22;;;;;;;6.53;5.93;;;18.50;99.90;;;;;;5009879;28;20230;-81
2022/08/18 06:10:49;;;;;;;6.73;6.00;;;18.50;99.90;;;;;;4993447;28;20229;-80
2022/08/18 06:13:19;;;;;;;6.20;5.70;;;18.50;99.90;;;;;;4961702;28;20211;-80
2022/08/18 06:16:00;;;;;;;6.40;5.80;;;18.60;99.90;;;;;;4961885;28;20650;-79
2022/08/18 06:18:42;;;;;;;6.70;6.00;;;18.60;99.90;;;;;;5010036;28;20179;-81
2022/08/18 06:21:42;;;;;;;6.27;5.77;;;18.60;99.90;;;;;;5009473;28;20184;-80
2022/08/18 06:24:41;;;;;;;7.43;6.63;;;18.60;99.90;;;;;;4963755;28;20239;-80
2022/08/18 06:27:28;;;;;;;6.17;5.67;;;18.70;99.90;;;;;;4993929;28;20196;-81
2022/08/18 06:30:06;;;;;;;6.37;5.70;;;18.80;99.90;;;;;;4976197;28;20188;-81
2022/08/18 06:32:40;;;;;;;6.40;5.80;;;18.90;99.90;;;;;;4960762;28;20552;-80
2022/08/18 06:35:30;;;;;;;6.83;6.13;;;18.90;99.90;;;;;;4976537;28;20176;-81
2022/08/18 06:41:08;;;;;;;7.17;6.33;;;18.90;99.90;;;;;;4993883;28;20730;-80
2022/08/18 06:43:38;;;;;;;7.07;6.47;;;18.90;99.90;;;;;;5008836;28;20246;-80
2022/08/18 06:46:14;;;;;;;7.07;6.37;;;18.90;99.90;;;;;;4960567;28;20318;-80
2022/08/18 06:48:57;;;;;;;6.40;5.80;;;19.10;99.90;;;;;;5008871;28;20267;-80
2022/08/18 06:51:26;;;;;;;7.20;6.17;;;19.00;99.90;;;;;;4976156;28;20176;-81
2022/08/18 06:54:00;;;;;;;7.03;6.43;;;19.10;99.90;;;;;;5008870;28;20180;-80
2022/08/18 06:56:37;;;;;;;7.67;6.97;;;19.10;99.90;;;;;;4976295;28;20203;-81
2022/08/18 06:59:20;;;;;;;6.67;6.10;;;19.10;99.90;;;;;;4976262;28;20556;-81
2022/08/18 07:01:53;;;;;;;6.95;6.35;;;19.10;99.90;;;;;;4975868;28;20214;-81
2022/08/18 07:04:42;;;;;;;7.90;7.03;;;19.10;99.90;;;;;;4959892;28;20438;-80
2022/08/18 07:07:29;;;;;;;7.70;7.00;;;19.10;99.90;;;;;;4993533;28;20194;-81
2022/08/18 07:09:55;;;;;;;7.83;7.03;;;19.10;99.90;;;;;;4976064;28;20175;-81
2022/08/18 07:12:24;;;;;;;7.50;6.33;;;19.20;99.90;;;;;;5008707;28;20190;-80
2022/08/18 07:15:00;;;;;;;6.83;6.23;;;19.20;99.90;;;;;;5008271;28;20183;-81
2022/08/18 07:17:31;;;;;;;7.77;6.93;;;19.20;99.90;;;;;;5008421;28;20199;-79
2022/08/18 07:20:16;;;;;;;7.40;6.63;;;19.20;99.90;;;;;;5008464;28;20183;-80
2022/08/18 07:23:00;;;;;;;7.93;6.90;;;19.10;99.90;;;;;;5008043;28;20229;-80
2022/08/18 07:25:49;;;;;;;9.90;6.97;;;19.00;99.90;;;;;;4959717;28;20620;-80
2022/08/18 07:28:40;;;;;;;9.02;8.13;;;19.00;99.90;;;;;;4992988;28;20196;-80
2022/08/18 07:31:25;;;;;;;9.07;8.20;;;19.10;99.90;;;;;;5008207;28;20226;-80
2022/08/18 07:34:11;;;;;;;9.60;8.13;;;19.10;99.90;;;;;;5008050;28;20670;-80
2022/08/18 07:36:52;;;;;;;9.13;8.23;;;18.90;99.90;;;;;;4959891;28;20582;-80
2022/08/18 07:39:24;;;;;;;12.00;9.07;;;18.90;99.90;;;;;;5008391;28;20561;-80
2022/08/18 07:41:57;;;;;;;10.23;9.23;;;18.90;99.90;;;;;;4975565;28;20515;-80
2022/08/18 07:44:33;;;;;;;10.50;9.35;;;18.90;99.90;;;;;;5008045;28;20673;-80
2022/08/18 07:47:07;;;;;;;10.73;9.32;;;18.90;99.90;;;;;;5008024;28;20194;-81
2022/08/18 07:49:35;;;;;;;11.50;10.35;;;19.00;99.90;;;;;;5007932;28;20630;-80
2022/08/18 07:52:20;;;;;;;12.37;11.07;;;19.00;99.90;;;;;;4971078;28;20188;-80
2022/08/18 07:55:14;;;;;;;11.57;10.33;;;19.00;99.90;;;;;;4974777;28;20234;-80
2022/08/18 07:58:03;;;;;;;10.80;9.70;;;18.80;99.90;;;;;;4974417;28;20199;-80
2022/08/18 08:00:40;;;;;;;12.83;10.93;;;18.60;99.90;;;;;;5007768;28;20565;-80
2022/08/18 08:03:24;;;;;;;11.83;10.70;;;18.60;99.90;;;;;;4975545;28;20214;-80
2022/08/18 08:06:02;;;;;;;12.90;11.23;;;18.50;99.90;;;;;;4975393;28;20569;-80
2022/08/18 08:08:41;;;;;;;12.37;11.23;;;18.60;99.90;;;;;;4975371;28;20195;-80
2022/08/18 08:11:26;;;;;;;13.80;12.07;;;18.70;99.90;;;;;;4974904;28;20178;-80
2022/08/18 08:14:13;;;;;;;13.20;11.50;;;18.70;99.90;;;;;;4975660;28;20180;-80
2022/08/18 08:16:43;;;;;;;13.27;12.00;;;18.60;99.90;;;;;;4979214;28;20206;-80
2022/08/18 08:19:23;;;;;;;13.37;11.97;;;18.80;99.90;;;;;;4996608;28;20183;-80
2022/08/18 08:22:15;;;;;;;12.77;11.30;;;18.90;99.90;;;;;;4978895;28;20211;-82
2022/08/18 08:25:18;;;;;;;12.07;10.87;;;18.90;99.90;;;;;;4949447;28;20247;-80
2022/08/18 08:27:58;;;;;;;11.90;10.67;;;18.90;99.90;;;;;;4978858;28;20203;-80
2022/08/18 08:30:29;;;;;;;11.57;10.38;;;19.00;99.90;;;;;;4996353;28;20172;-80
2022/08/18 08:33:00;;;;;;;13.23;11.47;;;19.00;99.90;;;;;;4995444;28;20179;-80
2022/08/18 08:35:40;;;;;;;11.87;10.73;;;19.00;99.90;;;;;;4978706;28;20180;-81
2022/08/18 08:38:12;;;;;;;12.13;10.32;;;19.10;99.90;;;;;;4996491;28;20282;-80
2022/08/18 08:40:56;;;;;;;13.40;12.10;;;19.10;99.90;;;;;;4978512;28;20697;-80
2022/08/18 08:43:30;;;;;;;12.77;11.57;;;19.00;99.90;;;;;;4978886;28;20290;-82
2022/08/18 08:46:02;;;;;;;13.50;12.10;;;19.10;99.90;;;;;;4978318;28;20175;-80
2022/08/18 08:48:33;;;;;;;12.73;11.43;;;19.20;99.90;;;;;;4995725;28;20168;-80
2022/08/18 08:51:14;;;;;;;12.20;11.00;;;19.20;99.90;;;;;;4977330;28;20188;-80
2022/08/18 08:53:48;;;;;;;12.60;11.32;;;19.20;99.90;;;;;;4977831;28;20210;-80
2022/08/18 08:56:18;;;;;;;12.80;11.40;;;19.10;99.90;;;;;;4978467;28;20290;-80
2022/08/18 08:58:50;;;;;;;13.40;11.38;;;19.10;99.90;;;;;;4988996;28;20646;-82
2022/08/18 09:01:48;;;;;;;13.80;11.68;;;19.10;99.90;;;;;;5010706;28;20183;-79
2022/08/18 09:04:39;;;;;;;13.53;11.43;;;19.10;99.90;;;;;;4964872;28;20793;-79
2022/08/18 09:07:41;;;;;;;13.40;12.03;;;19.10;99.90;;;;;;4978650;28;20207;-79
2022/08/18 09:10:22;;;;;;;14.80;12.50;;;19.00;99.90;;;;;;4978247;28;20176;-79
2022/08/18 09:12:57;;;;;;;15.87;14.10;;;18.80;99.90;;;;;;4968624;28;20183;-79
2022/08/18 09:15:41;;;;;;;15.77;13.20;;;18.80;99.90;;;;;;4959488;28;20168;-80
2022/08/18 09:18:27;;;;;;;15.27;13.37;;;18.80;99.90;;;;;;4959597;28;20196;-80
2022/08/18 09:21:17;;;;;;;15.93;14.23;;;18.90;99.90;;;;;;4928969;28;20187;-79
2022/08/18 09:23:47;;;;;;;14.17;12.67;;;19.00;99.90;;;;;;4959159;28;20204;-79
2022/08/18 09:26:39;;;;;;;13.80;12.43;;;19.00;99.90;;;;;;4942873;28;20205;-79
2022/08/18 09:29:26;;;;;;;14.67;12.97;;;19.20;99.90;;;;;;4959128;28;20212;-79
2022/08/18 09:32:19;;;;;;;16.17;14.57;;;19.30;99.90;;;;;;4958734;28;20639;-79
2022/08/18 09:34:56;;;;;;;16.70;15.00;;;19.40;99.90;;;;;;4976971;28;20180;-79
2022/08/18 09:37:37;;;;;;;17.15;15.27;;;19.50;99.90;;;;;;4992440;23;20234;-76
2022/08/18 09:43:10;;;;;;;16.00;14.05;;;19.50;99.90;;;;;;4957923;28;20207;-76
2022/08/18 09:45:53;;;;;;;16.87;15.07;;;19.60;99.90;;;;;;4977167;28;20172;-76
2022/08/18 09:48:25;;;;;;;17.48;15.75;;;19.80;99.90;;;;;;4977183;28;20198;-76
2022/08/18 09:51:14;;;;;;;21.13;18.88;;;20.00;99.90;;;;;;4976740;28;20270;-76
2022/08/18 09:53:46;;;;;;;20.02;18.02;;;20.10;99.90;;;;;;4977061;28;20726;-76
2022/08/18 09:56:14;;;;;;;20.95;18.73;;;20.20;99.90;;;;;;4977304;28;20172;-76
2022/08/18 09:59:00;;;;;;;25.45;20.92;;;20.20;99.90;;;;;;4978106;28;20238;-77
2022/08/18 10:01:32;;;;;;;25.50;22.75;;;20.20;99.90;;;;;;4977535;28;20164;-78
2022/08/18 10:04:13;;;;;;;27.63;24.52;;;20.30;99.90;;;;;;4977471;28;20196;-77
2022/08/18 10:06:44;;;;;;;26.80;23.13;;;20.30;99.90;;;;;;4977442;28;20339;-78
2022/08/18 10:09:46;;;;;;;29.88;25.95;;;20.30;99.90;;;;;;4977215;28;20186;-78
2022/08/18 10:12:47;;;;;;;27.88;23.77;;;20.40;99.90;;;;;;4977265;28;20164;-77
2022/08/18 10:15:28;;;;;;;28.65;24.38;;;20.40;99.90;;;;;;4977471;28;20171;-77
2022/08/18 10:18:14;;;;;;;30.08;24.75;;;20.30;99.90;;;;;;4976891;28;20335;-76
2022/08/18 10:21:07;;;;;;;30.27;25.75;;;20.30;99.90;;;;;;4976362;28;20202;-76
2022/08/18 10:23:45;;;;;;;28.52;25.42;;;20.30;99.90;;;;;;4977292;28;20199;-77
2022/08/18 10:26:29;;;;;;;33.08;28.38;;;20.30;99.90;;;;;;4976733;28;20186;-77
2022/08/18 10:28:57;;;;;;;32.67;27.67;;;20.40;99.90;;;;;;4994216;28;20665;-77
2022/08/18 10:31:24;;;;;;;34.47;29.05;;;20.50;99.90;;;;;;4976800;28;20175;-77
2022/08/18 10:33:57;;;;;;;31.40;27.67;;;20.50;99.90;;;;;;4961078;28;20180;-77
2022/08/18 10:36:36;;;;;;;32.55;28.13;;;20.50;99.90;;;;;;4976934;28;20210;-77
2022/08/18 10:39:16;;;;;;;33.83;27.42;;;20.40;99.90;;;;;;4976200;28;20179;-78
2022/08/18 10:42:09;;;;;;;34.03;28.83;;;20.40;99.90;;;;;;4976335;28;20235;-77
2022/08/18 10:44:42;;;;;;;32.70;27.45;;;20.50;99.90;;;;;;4976013;28;20266;-78
2022/08/18 10:47:19;;;;;;;34.25;28.67;;;20.50;99.90;;;;;;4976032;28;20202;-78
2022/08/18 10:49:49;;;;;;;35.78;29.58;;;20.40;99.90;;;;;;4961566;28;20183;-78
2022/08/18 10:52:26;;;;;;;33.58;27.55;;;20.30;99.90;;;;;;4960368;28;20176;-78
2022/08/18 10:55:26;;;;;;;34.83;29.63;;;20.30;99.90;;;;;;4976637;28;20540;-78
2022/08/18 10:58:15;;;;;;;35.00;29.45;;;20.30;99.90;;;;;;4993607;28;20195;-77
2022/08/18 11:01:02;;;;;;;38.28;31.05;;;20.40;99.90;;;;;;4967928;28;20223;-78
2022/08/18 11:03:47;;;;;;;24.58;20.05;;;20.30;99.90;;;;;;4975712;28;20208;-78
2022/08/18 11:06:19;;;;;;;28.90;24.98;;;20.50;99.90;;;;;;4976051;28;20172;-77
2022/08/18 11:08:50;;;;;;;14.48;12.75;;;20.90;99.90;;;;;;4976169;28;20210;-77
2022/08/18 11:11:22;;;;;;;17.85;16.02;;;21.50;99.90;;;;;;4976261;28;20573;-77
2022/08/18 11:13:47;;;;;;;14.50;13.00;;;21.80;99.90;;;;;;4976082;28;20216;-77
2022/08/18 11:16:13;;;;;;;16.20;14.50;;;22.20;99.90;;;;;;4976620;28;20187;-78
2022/08/18 11:18:48;;;;;;;25.60;22.85;;;22.50;99.90;;;;;;4976210;28;20179;-78
2022/08/18 11:21:34;;;;;;;21.63;18.33;;;22.30;99.90;;;;;;4975382;28;20175;-78
2022/08/18 11:24:06;;;;;;;24.48;21.17;;;22.20;99.90;;;;;;4993270;28;20250;-78
2022/08/18 11:26:34;;;;;;;24.13;19.45;;;22.40;99.90;;;;;;4992615;28;20191;-78
2022/08/18 11:29:15;;;;;;;25.67;23.02;;;22.60;99.90;;;;;;4958554;28;20203;-78
2022/08/18 11:31:41;;;;;;;33.45;27.35;;;22.90;99.90;;;;;;4975216;28;20178;-77
2022/08/18 11:34:15;;;;;;;29.08;25.05;;;22.60;99.90;;;;;;4959744;28;20175;-74
2022/08/18 11:36:41;;;;;;;33.47;29.15;;;22.50;99.90;;;;;;4975348;28;20242;-77
2022/08/18 11:39:19;;;;;;;34.72;28.02;;;22.40;99.90;;;;;;4943755;28;20203;-78
2022/08/18 11:41:48;;;;;;;25.52;22.77;;;22.20;99.90;;;;;;4992505;28;20239;-77
2022/08/18 11:44:19;;;;;;;30.08;24.42;;;22.50;99.90;;;;;;4960540;28;20203;-78
2022/08/18 11:46:44;;;;;;;37.13;30.42;;;22.30;99.90;;;;;;4959017;28;20228;-76
2022/08/18 11:49:38;;;;;;;38.58;32.47;;;22.20;99.90;;;;;;4975526;28;20217;-77
2022/08/18 11:52:28;;;;;;;37.30;31.00;;;21.80;99.90;;;;;;4965054;28;20183;-78
2022/08/18 11:55:01;;;;;;;35.40;30.85;;;21.60;99.90;;;;;;4979370;28;20171;-78
2022/08/18 11:57:53;;;;;;;26.95;22.33;;;21.60;99.90;;;;;;4979391;28;20286;-78
2022/08/18 12:00:40;;;;;;;37.75;32.03;;;21.90;99.90;;;;;;4956735;28;20282;-78
2022/08/18 12:03:20;;;;;;;36.70;31.77;;;22.50;99.90;;;;;;4963187;28;20180;-78
2022/08/18 12:05:52;;;;;;;36.67;32.20;;;22.70;99.90;;;;;;4979061;28;20229;-78
2022/08/18 12:08:34;;;;;;;35.67;30.52;;;22.80;99.90;;;;;;4962896;28;20294;-78
2022/08/18 12:11:13;;;;;;;35.25;30.23;;;23.20;99.90;;;;;;4996396;28;20681;-77
2022/08/18 12:13:41;;;;;;;35.85;31.20;;;23.40;99.90;;;;;;4964015;28;20187;-77
2022/08/18 12:16:26;;;;;;;33.17;29.58;;;23.40;99.90;;;;;;4962895;28;20271;-77
2022/08/18 12:18:52;;;;;;;29.05;25.33;;;23.30;99.90;;;;;;4965265;28;20529;-77
2022/08/18 12:21:18;;;;;;;30.20;26.33;;;23.40;99.90;;;;;;4947183;28;20225;-78
2022/08/18 12:23:43;;;;;;;34.08;28.75;;;23.60;99.90;;;;;;4946712;28;20247;-77
2022/08/18 12:26:09;;;;;;;33.92;28.42;;;23.80;99.90;;;;;;4962633;28;20223;-77
2022/08/18 12:28:35;;;;;;;31.25;27.75;;;23.50;99.90;;;;;;4946581;28;20212;-77
2022/08/18 12:31:01;;;;;;;29.42;26.25;;;23.40;99.90;;;;;;4978422;28;20195;-77
2022/08/18 12:33:26;;;;;;;28.63;25.55;;;23.30;99.90;;;;;;4946585;28;20179;-77
2022/08/18 12:35:52;;;;;;;28.17;25.13;;;23.40;99.90;;;;;;4946600;28;20179;-82
2022/08/18 12:38:18;;;;;;;26.35;23.42;;;23.70;99.90;;;;;;4946572;28;20219;-77
2022/08/18 12:40:43;;;;;;;29.13;24.75;;;23.90;99.90;;;;;;4946353;28;20594;-77
2022/08/18 12:43:09;;;;;;;25.00;22.35;;;23.70;99.90;;;;;;4946157;28;20203;-78
2022/08/18 12:45:36;;;;;;;24.88;21.95;;;23.60;99.90;;;;;;4978337;28;20180;-77
2022/08/18 12:48:02;;;;;;;24.67;21.98;;;23.40;99.90;;;;;;4978491;28;20322;-77
2022/08/18 12:50:27;;;;;;;23.63;21.23;;;23.30;99.90;;;;;;4962039;28;20200;-77
2022/08/18 12:52:53;;;;;;;23.95;19.50;;;23.20;99.90;;;;;;4962087;28;20705;-77
2022/08/18 12:55:19;;;;;;;20.80;18.60;;;23.10;99.90;;;;;;4946210;28;20270;-77
2022/08/18 12:57:44;;;;;;;19.73;17.05;;;23.20;99.90;;;;;;4945959;28;20200;-78
2022/08/18 13:00:11;;;;;;;19.25;17.10;;;23.50;99.90;;;;;;4945327;28;20208;-77
2022/08/18 13:02:36;;;;;;;18.27;16.38;;;23.90;99.90;;;;;;4946064;28;20209;-77
2022/08/18 13:05:02;;;;;;;17.85;16.15;;;23.90;99.90;;;;;;4946162;28;20658;-77
2022/08/18 13:07:29;;;;;;;16.10;14.50;;;23.90;99.90;;;;;;4961752;28;20199;-78
2022/08/18 13:09:54;;;;;;;17.40;15.63;;;24.20;99.90;;;;;;4961614;28;20267;-78
2022/08/18 13:12:20;;;;;;;14.77;13.32;;;24.50;99.90;;;;;;4961942;28;20263;-77
2022/08/18 13:14:48;;;;;;;16.52;14.73;;;24.60;99.90;;;;;;4961830;28;20183;-77
2022/08/18 13:17:14;;;;;;;16.48;14.88;;;24.80;99.90;;;;;;4977843;28;20196;-77
2022/08/18 13:19:39;;;;;;;18.33;16.42;;;25.00;99.90;;;;;;4977904;28;20205;-78
2022/08/18 13:22:05;;;;;;;16.50;14.73;;;25.30;99.90;;;;;;4961511;28;20271;-77
2022/08/18 13:24:30;;;;;;;18.23;16.42;;;25.50;99.90;;;;;;4945496;28;20235;-77
2022/08/18 13:26:56;;;;;;;15.20;13.68;;;25.70;99.90;;;;;;4945420;28;20642;-77